Nearby METAR Reports

 

KMGY - Dayton, Ohio, USA
Distance from station: N 3mi, 5km
Updated: 07/20/2019 9:53pm
Clear
Clear
 Wind from calm
Wind: Calm
Temperature: 84°F , 29°C
Heat Index: 90°F , 32°C
Dew Point: 73°F , 23°C
Humidity: 70%
Barometer: 29.95 inHg , 1014.2 hPa
Clouds: Clear
Visibility: 10 miles , 16 km
2019/07/21 01:53 KMGY 210153Z AUTO 00000KT 10SM CLR 29/23 A2995 RMK AO2 SLP132 T02890228
KMWO - Middletown/Hook, Ohio, USA
Distance from station: W 9mi, 14km
Updated: 07/20/2019 10:35pm
Clear
Clear
 Wind from WSW
Wind: WSW 3 mph , 6 km/h
Temperature: 77°F , 25°C
Dew Point: 75°F , 24°C
Humidity: 94%
Barometer: 29.94 inHg , 1013.9 hPa
Clouds: Clear
Visibility: 10 miles , 16 km
2019/07/21 02:35 KMWO 210235Z AUTO 24003KT 10SM CLR 25/24 A2994 RMK AO2 T02530242
 
KHAO - Hamilton, Ohio, USA
Distance from station: SW 20mi, 32km
Updated: 07/20/2019 12:53pm
NOT Current
Few Clouds
Few Clouds
 Wind from SSW
Wind: SSW 8 mph , 13 km/h
Temperature: 90°F , 32°C
Heat Index: 101°F , 38°C
Dew Point: 75°F , 24°C
Humidity: 63%
Barometer: 29.97 inHg , 1014.9 hPa
Clouds: Few Clouds
Visibility: 10 miles , 16 km
Cloud details: Few Clouds 3500 ft
2019/07/20 16:53 KHAO 201653Z AUTO 20007KT 170V230 10SM FEW035 32/24 A2997 RMK AO2 SLP142 T03220239
KFFO - Wright Paterson, Ohio, USA
Distance from station: NNE 21mi, 34km
Updated: 07/20/2019 9:56pm
Clear
Clear
 Wind from calm
Wind: Calm
Temperature: 82°F , 28°C
Heat Index: 87°F , 31°C
Dew Point: 73°F , 23°C
Humidity: 74%
Barometer: 29.94 inHg , 1013.9 hPa
Clouds: Clear
Visibility: 10 miles , 16 km
2019/07/21 01:56 KFFO 210156Z AUTO 00000KT 10SM CLR 28/23 A2994 RMK AO2 SLP134 T02820231
 
KDAY - Dayton, Ohio, USA
Distance from station: N 24mi, 39km
Updated: 07/20/2019 9:56pm
Clear
Clear
 Wind from SW
Wind: SW 7 mph , 11 km/h
Temperature: 82°F , 28°C
Heat Index: 87°F , 31°C
Dew Point: 73°F , 23°C
Humidity: 74%
Barometer: 29.96 inHg , 1014.6 hPa
Clouds: Clear
Visibility: 10 miles , 16 km
2019/07/21 01:56 KDAY 210156Z 23006KT 10SM CLR 28/23 A2996 RMK AO2 SLP134 T02830228
KILN - Wilmington, Ohio, USA
Distance from station: ESE 25mi, 39km
Updated: 07/20/2019 9:54pm
Clear
Clear
 Wind from calm
Wind: Calm
Temperature: 81°F , 27°C
Heat Index: 86°F , 30°C
Dew Point: 73°F , 23°C
Humidity: 79%
Barometer: 29.97 inHg , 1014.9 hPa
Clouds: Clear
Visibility: 10 miles , 16 km
2019/07/21 01:54 KILN 210154Z AUTO 00000KT 10SM CLR 27/23 A2997 RMK AO2 SLP131 T02670228
 
KSGH - Springfield Muni, Ohio, USA
Distance from station: NE 29mi, 46km
Updated: 07/20/2019 9:56pm
Clear
Clear
 Wind from SW
Wind: SW 3 mph , 6 km/h
Temperature: 82°F , 28°C
Heat Index: 89°F , 32°C
Dew Point: 75°F , 24°C
Humidity: 79%
Barometer: 29.97 inHg , 1014.9 hPa
Clouds: Clear
Visibility: 10 miles , 16 km
2019/07/21 01:56 KSGH 210156Z AUTO 22003KT 10SM CLR 28/24 A2997 RMK AO2 SLP138 T02780239
KI69 - Batavia, Ohio, USA
Distance from station: S 32mi, 52km
Updated: 07/20/2019 10:35pm
Clear
Clear
 Wind from SSW
Wind: SSW 3 mph , 6 km/h
Temperature: 82°F , 28°C
Heat Index: 89°F , 32°C
Dew Point: 75°F , 24°C
Humidity: 79%
Barometer: 29.97 inHg , 1014.9 hPa
Clouds: Clear
Visibility: 10 miles , 16 km
2019/07/21 02:35 KI69 210235Z AUTO 21003KT 10SM CLR 28/24 A2997 RMK AO2 T02750236
 
KLUK - Cincinnat/Lunken, Ohio, USA
Distance from station: SSW 33mi, 53km
Updated: 07/20/2019 9:53pm
Clear
Clear
 Wind from calm
Wind: Calm
Temperature: 82°F , 28°C
Heat Index: 87°F , 31°C
Dew Point: 73°F , 23°C
Humidity: 74%
Barometer: 29.95 inHg , 1014.2 hPa
Clouds: Clear
Visibility: 10 miles , 16 km
2019/07/21 01:53 KLUK 210153Z 00000KT 10SM CLR 28/23 A2995 RMK AO2 SLP136 T02830233
KCVG - Covington, Kentucky, USA
Distance from station: SSW 42mi, 67km
Updated: 07/20/2019 9:52pm
Clear
Clear
 Wind from SSW
Wind: SSW 3 mph , 6 km/h
Temperature: 82°F , 28°C
Heat Index: 86°F , 30°C
Dew Point: 72°F , 22°C
Humidity: 70%
Barometer: 29.96 inHg , 1014.6 hPa
Clouds: Clear
Visibility: 10 miles , 16 km
2019/07/21 01:52 KCVG 210152Z 21003KT 10SM CLR 28/22 A2996 RMK AO2 SLP133 T02830222 $
 
KVES - Versailles, Ohio, USA
Distance from station: NNW 47mi, 76km
Updated: 07/20/2019 10:30pm
Clear
Clear
 Wind from calm
Wind: Calm
Temperature: 81°F , 27°C
Heat Index: 86°F , 30°C
Dew Point: 73°F , 23°C
Humidity: 79%
Barometer: 29.93 inHg , 1013.5 hPa
Clouds: Clear
Visibility: 7 miles , 11 km
2019/07/21 02:30 KVES 210230Z AUTO 00000KT 7SM CLR 27/23 A2993 RMK AO2